sensor_id;sensor_type;location;lat;lon;timestamp;pressure;altitude;pressure_sealevel;temperature;humidity
71772;BME280;59606;52.138;5.424;2022-08-11T00:01:54;102416.34;;;20.78;56.93
71772;BME280;59606;52.138;5.424;2022-08-11T00:04:23;102419.44;;;20.71;57.41
71772;BME280;59606;52.138;5.424;2022-08-11T00:06:51;102416.38;;;20.65;57.65
71772;BME280;59606;52.138;5.424;2022-08-11T00:09:22;102415.75;;;20.61;58.04
71772;BME280;59606;52.138;5.424;2022-08-11T00:11:58;102425.03;;;20.56;57.79
71772;BME280;59606;52.138;5.424;2022-08-11T00:14:31;102413.91;;;20.51;57.78
71772;BME280;59606;52.138;5.424;2022-08-11T00:17:08;102421.19;;;20.47;57.86
71772;BME280;59606;52.138;5.424;2022-08-11T00:19:38;102421.63;;;20.41;58.07
71772;BME280;59606;52.138;5.424;2022-08-11T00:22:28;102423.00;;;20.34;57.71
71772;BME280;59606;52.138;5.424;2022-08-11T00:24:56;102425.88;;;20.31;58.17
71772;BME280;59606;52.138;5.424;2022-08-11T00:27:35;102419.94;;;20.27;58.08
71772;BME280;59606;52.138;5.424;2022-08-11T00:30:04;102428.94;;;20.24;58.68
71772;BME280;59606;52.138;5.424;2022-08-11T00:32:31;102424.00;;;20.20;58.13
71772;BME280;59606;52.138;5.424;2022-08-11T00:35:00;102426.94;;;20.15;58.58
71772;BME280;59606;52.138;5.424;2022-08-11T00:37:48;102423.66;;;20.12;58.75
71772;BME280;59606;52.138;5.424;2022-08-11T00:40:32;102424.00;;;20.07;58.80
71772;BME280;59606;52.138;5.424;2022-08-11T00:52:27;102427.19;;;19.87;59.19
71772;BME280;59606;52.138;5.424;2022-08-11T00:55:01;102429.41;;;19.80;59.42
71772;BME280;59606;52.138;5.424;2022-08-11T01:00:31;102435.22;;;19.72;59.94
71772;BME280;59606;52.138;5.424;2022-08-11T01:17:39;102426.78;;;19.40;60.84
71772;BME280;59606;52.138;5.424;2022-08-11T01:20:25;102418.22;;;19.37;61.95
71772;BME280;59606;52.138;5.424;2022-08-11T01:23:45;102422.75;;;19.35;60.98
71772;BME280;59606;52.138;5.424;2022-08-11T01:40:39;102424.28;;;19.12;62.69
71772;BME280;59606;52.138;5.424;2022-08-11T01:44:01;102421.09;;;19.06;62.44
71772;BME280;59606;52.138;5.424;2022-08-11T01:49:43;102419.88;;;18.98;63.10
71772;BME280;59606;52.138;5.424;2022-08-11T01:52:46;102429.72;;;18.96;62.57
71772;BME280;59606;52.138;5.424;2022-08-11T01:55:26;102432.75;;;18.90;63.25
71772;BME280;59606;52.138;5.424;2022-08-11T01:58:03;102430.31;;;18.87;63.16
71772;BME280;59606;52.138;5.424;2022-08-11T02:00:49;102427.00;;;18.83;62.96
71772;BME280;59606;52.138;5.424;2022-08-11T02:03:48;102435.97;;;18.80;63.05
71772;BME280;59606;52.138;5.424;2022-08-11T02:06:27;102430.03;;;18.77;63.48
71772;BME280;59606;52.138;5.424;2022-08-11T02:09:37;102420.72;;;18.71;63.46
71772;BME280;59606;52.138;5.424;2022-08-11T02:12:43;102425.22;;;18.69;63.30
71772;BME280;59606;52.138;5.424;2022-08-11T02:15:28;102422.91;;;18.65;63.62
71772;BME280;59606;52.138;5.424;2022-08-11T02:18:10;102425.81;;;18.60;63.89
71772;BME280;59606;52.138;5.424;2022-08-11T02:20:57;102422.53;;;18.56;64.07
71772;BME280;59606;52.138;5.424;2022-08-11T02:24:03;102418.47;;;18.51;64.38
71772;BME280;59606;52.138;5.424;2022-08-11T02:26:43;102418.69;;;18.48;64.37
71772;BME280;59606;52.138;5.424;2022-08-11T02:29:20;102419.81;;;18.44;64.01
71772;BME280;59606;52.138;5.424;2022-08-11T02:37:51;102423.22;;;18.31;64.35
71772;BME280;59606;52.138;5.424;2022-08-11T02:43:21;102420.84;;;18.27;64.46
71772;BME280;59606;52.138;5.424;2022-08-11T02:52:04;102415.22;;;18.19;66.02
71772;BME280;59606;52.138;5.424;2022-08-11T02:55:01;102417.00;;;18.18;65.69
71772;BME280;59606;52.138;5.424;2022-08-11T02:57:40;102416.34;;;18.14;65.38
71772;BME280;59606;52.138;5.424;2022-08-11T03:00:14;102413.91;;;18.11;65.94
71772;BME280;59606;52.138;5.424;2022-08-11T03:03:02;102410.78;;;18.05;66.12
71772;BME280;59606;52.138;5.424;2022-08-11T03:05:53;102410.22;;;18.00;65.71
71772;BME280;59606;52.138;5.424;2022-08-11T03:14:11;102413.63;;;17.87;66.93
71772;BME280;59606;52.138;5.424;2022-08-11T03:17:31;102403.25;;;17.84;66.94
71772;BME280;59606;52.138;5.424;2022-08-11T03:20:10;102397.22;;;17.82;67.05
71772;BME280;59606;52.138;5.424;2022-08-11T03:23:10;102407.22;;;17.77;66.60
71772;BME280;59606;52.138;5.424;2022-08-11T03:25:50;102403.00;;;17.73;66.69
71772;BME280;59606;52.138;5.424;2022-08-11T03:28:27;102405.81;;;17.70;67.19
71772;BME280;59606;52.138;5.424;2022-08-11T03:31:07;102403.38;;;17.67;66.73
71772;BME280;59606;52.138;5.424;2022-08-11T03:33:43;102405.25;;;17.65;66.99
71772;BME280;59606;52.138;5.424;2022-08-11T03:40:47;102409.47;;;17.53;66.83
71772;BME280;59606;52.138;5.424;2022-08-11T03:43:50;102401.00;;;17.48;67.63
71772;BME280;59606;52.138;5.424;2022-08-11T03:49:30;102403.97;;;17.42;68.08
71772;BME280;59606;52.138;5.424;2022-08-11T03:52:20;102405.94;;;17.38;68.55
71772;BME280;59606;52.138;5.424;2022-08-11T03:54:59;102404.34;;;17.36;68.06
71772;BME280;59606;52.138;5.424;2022-08-11T03:58:10;102413.25;;;17.33;67.97
71772;BME280;59606;52.138;5.424;2022-08-11T04:01:03;102411.69;;;17.31;68.58
71772;BME280;59606;52.138;5.424;2022-08-11T04:18:04;102396.91;;;17.12;69.43
71772;BME280;59606;52.138;5.424;2022-08-11T04:23:36;102400.75;;;17.07;70.13
71772;BME280;59606;52.138;5.424;2022-08-11T04:26:52;102407.06;;;17.04;69.46
71772;BME280;59606;52.138;5.424;2022-08-11T04:29:30;102400.00;;;17.05;69.77
71772;BME280;59606;52.138;5.424;2022-08-11T04:41:17;102391.44;;;17.01;69.61
71772;BME280;59606;52.138;5.424;2022-08-11T04:47:43;102390.75;;;16.98;70.14
71772;BME280;59606;52.138;5.424;2022-08-11T04:54:14;102398.72;;;16.96;70.78
71772;BME280;59606;52.138;5.424;2022-08-11T04:57:34;102397.81;;;16.97;70.29
71772;BME280;59606;52.138;5.424;2022-08-11T05:00:17;102391.59;;;16.98;70.59
71772;BME280;59606;52.138;5.424;2022-08-11T05:03:17;102391.59;;;16.98;70.23
71772;BME280;59606;52.138;5.424;2022-08-11T05:09:02;102389.47;;;17.05;69.73
71772;BME280;59606;52.138;5.424;2022-08-11T05:17:39;102389.44;;;17.20;70.61
71772;BME280;59606;52.138;5.424;2022-08-11T05:20:27;102396.03;;;17.28;70.19
71772;BME280;59606;52.138;5.424;2022-08-11T05:23:14;102388.53;;;17.36;70.76
71772;BME280;59606;52.138;5.424;2022-08-11T05:26:02;102388.06;;;17.43;70.73
71772;BME280;59606;52.138;5.424;2022-08-11T05:29:35;102398.75;;;17.56;70.35
71772;BME280;59606;52.138;5.424;2022-08-11T05:32:22;102398.09;;;17.67;71.49
71772;BME280;59606;52.138;5.424;2022-08-11T05:35:08;102391.38;;;17.77;71.66
71772;BME280;59606;52.138;5.424;2022-08-11T05:37:57;102406.56;;;17.88;71.69
71772;BME280;59606;52.138;5.424;2022-08-11T05:40:50;102402.22;;;18.01;71.72
71772;BME280;59606;52.138;5.424;2022-08-11T05:43:40;102409.09;;;18.18;70.86
71772;BME280;59606;52.138;5.424;2022-08-11T05:46:46;102408.22;;;18.46;70.15
71772;BME280;59606;52.138;5.424;2022-08-11T05:49:32;102407.88;;;18.79;70.04
71772;BME280;59606;52.138;5.424;2022-08-11T05:52:26;102403.16;;;19.24;68.96
71772;BME280;59606;52.138;5.424;2022-08-11T05:55:22;102406.94;;;19.98;66.47
71772;BME280;59606;52.138;5.424;2022-08-11T05:58:33;102403.63;;;21.18;63.30
71772;BME280;59606;52.138;5.424;2022-08-11T06:01:07;102411.91;;;22.06;59.22
71772;BME280;59606;52.138;5.424;2022-08-11T06:03:34;102404.59;;;22.76;57.94
71772;BME280;59606;52.138;5.424;2022-08-11T06:06:24;102394.03;;;23.29;56.50
71772;BME280;59606;52.138;5.424;2022-08-11T06:08:56;102402.16;;;22.95;56.12
71772;BME280;59606;52.138;5.424;2022-08-11T06:11:24;102407.81;;;22.02;57.88
71772;BME280;59606;52.138;5.424;2022-08-11T06:14:11;102412.22;;;20.98;60.96
71772;BME280;59606;52.138;5.424;2022-08-11T06:16:40;102413.19;;;20.36;62.61
71772;BME280;59606;52.138;5.424;2022-08-11T06:19:08;102412.66;;;20.05;64.75
71772;BME280;59606;52.138;5.424;2022-08-11T06:21:36;102410.91;;;19.93;65.95
71772;BME280;59606;52.138;5.424;2022-08-11T06:24:09;102411.19;;;19.88;65.46
71772;BME280;59606;52.138;5.424;2022-08-11T06:26:37;102411.72;;;19.81;65.57
71772;BME280;59606;52.138;5.424;2022-08-11T06:29:26;102412.56;;;19.81;66.21
71772;BME280;59606;52.138;5.424;2022-08-11T06:32:12;102410.88;;;19.80;66.10
71772;BME280;59606;52.138;5.424;2022-08-11T06:34:54;102399.78;;;19.88;65.98
71772;BME280;59606;52.138;5.424;2022-08-11T06:38:20;102400.53;;;19.90;65.91
71772;BME280;59606;52.138;5.424;2022-08-11T06:40:48;102405.19;;;19.99;66.07
71772;BME280;59606;52.138;5.424;2022-08-11T06:43:52;102403.13;;;20.15;65.18
71772;BME280;59606;52.138;5.424;2022-08-11T06:46:33;102402.91;;;20.18;64.37
71772;BME280;59606;52.138;5.424;2022-08-11T06:49:06;102403.53;;;20.22;64.75
71772;BME280;59606;52.138;5.424;2022-08-11T06:51:55;102401.09;;;20.32;64.44
71772;BME280;59606;52.138;5.424;2022-08-11T06:54:36;102399.38;;;20.43;64.00
71772;BME280;59606;52.138;5.424;2022-08-11T06:57:12;102396.19;;;20.51;63.39
71772;BME280;59606;52.138;5.424;2022-08-11T06:59:58;102396.72;;;20.56;63.19
71772;BME280;59606;52.138;5.424;2022-08-11T07:02:56;102398.59;;;20.67;62.04
71772;BME280;59606;52.138;5.424;2022-08-11T07:14:30;102392.81;;;21.21;59.74
71772;BME280;59606;52.138;5.424;2022-08-11T07:17:20;102400.53;;;21.24;59.39
71772;BME280;59606;52.138;5.424;2022-08-11T07:19:52;102403.78;;;21.28;58.69
71772;BME280;59606;52.138;5.424;2022-08-11T07:22:38;102396.47;;;21.31;58.94
71772;BME280;59606;52.138;5.424;2022-08-11T07:25:25;102405.06;;;21.46;58.32
71772;BME280;59606;52.138;5.424;2022-08-11T07:28:17;102399.34;;;21.63;57.94
71772;BME280;59606;52.138;5.424;2022-08-11T07:31:14;102407.53;;;21.83;57.70
71772;BME280;59606;52.138;5.424;2022-08-11T07:33:48;102402.50;;;21.91;57.24
71772;BME280;59606;52.138;5.424;2022-08-11T07:36:40;102406.88;;;22.03;57.58
71772;BME280;59606;52.138;5.424;2022-08-11T07:39:15;102405.56;;;22.20;56.85
71772;BME280;59606;52.138;5.424;2022-08-11T07:41:45;102408.91;;;22.22;56.54
71772;BME280;59606;52.138;5.424;2022-08-11T07:44:14;102407.34;;;22.31;55.43
71772;BME280;59606;52.138;5.424;2022-08-11T07:46:47;102402.41;;;22.38;57.32
71772;BME280;59606;52.138;5.424;2022-08-11T07:49:37;102402.47;;;22.58;56.46
71772;BME280;59606;52.138;5.424;2022-08-11T07:52:24;102396.19;;;22.71;55.06
71772;BME280;59606;52.138;5.424;2022-08-11T07:55:01;102396.84;;;22.84;54.58
71772;BME280;59606;52.138;5.424;2022-08-11T07:57:30;102390.16;;;22.90;53.46
71772;BME280;59606;52.138;5.424;2022-08-11T08:00:42;102389.00;;;22.94;54.86
71772;BME280;59606;52.138;5.424;2022-08-11T08:03:36;102383.63;;;23.05;54.43
71772;BME280;59606;52.138;5.424;2022-08-11T08:06:21;102381.97;;;23.25;52.88
71772;BME280;59606;52.138;5.424;2022-08-11T08:09:08;102383.69;;;23.36;51.45
71772;BME280;59606;52.138;5.424;2022-08-11T08:11:54;102385.13;;;23.40;51.03
71772;BME280;59606;52.138;5.424;2022-08-11T08:14:40;102382.72;;;23.58;52.13
71772;BME280;59606;52.138;5.424;2022-08-11T08:17:26;102380.59;;;23.72;50.41
71772;BME280;59606;52.138;5.424;2022-08-11T08:20:38;102385.38;;;23.79;50.99
71772;BME280;59606;52.138;5.424;2022-08-11T08:23:06;102388.09;;;23.88;50.10
71772;BME280;59606;52.138;5.424;2022-08-11T08:25:39;102386.69;;;23.94;49.13
71772;BME280;59606;52.138;5.424;2022-08-11T08:28:10;102382.41;;;24.03;49.82
71772;BME280;59606;52.138;5.424;2022-08-11T08:30:37;102390.00;;;24.17;49.45
71772;BME280;59606;52.138;5.424;2022-08-11T08:33:15;102389.75;;;24.20;48.53
71772;BME280;59606;52.138;5.424;2022-08-11T08:35:44;102387.66;;;24.23;50.41
71772;BME280;59606;52.138;5.424;2022-08-11T08:38:21;102385.47;;;24.38;48.12
71772;BME280;59606;52.138;5.424;2022-08-11T08:40:51;102384.78;;;24.46;47.97
71772;BME280;59606;52.138;5.424;2022-08-11T08:43:22;102384.38;;;24.60;48.28
71772;BME280;59606;52.138;5.424;2022-08-11T08:45:52;102377.13;;;24.72;47.86
71772;BME280;59606;52.138;5.424;2022-08-11T08:48:22;102376.84;;;24.75;47.22
71772;BME280;59606;52.138;5.424;2022-08-11T08:50:56;102378.25;;;24.89;47.20
71772;BME280;59606;52.138;5.424;2022-08-11T08:54:21;102376.25;;;25.01;46.58
71772;BME280;59606;52.138;5.424;2022-08-11T08:56:51;102377.53;;;25.06;46.14
71772;BME280;59606;52.138;5.424;2022-08-11T08:59:21;102372.06;;;25.17;46.50
71772;BME280;59606;52.138;5.424;2022-08-11T09:01:57;102369.69;;;25.24;44.41
71772;BME280;59606;52.138;5.424;2022-08-11T09:04:25;102375.53;;;25.37;44.37
71772;BME280;59606;52.138;5.424;2022-08-11T09:06:53;102377.19;;;25.48;44.36
71772;BME280;59606;52.138;5.424;2022-08-11T09:09:21;102378.47;;;25.54;43.32
71772;BME280;59606;52.138;5.424;2022-08-11T09:11:48;102379.72;;;25.59;45.00
71772;BME280;59606;52.138;5.424;2022-08-11T09:14:24;102372.91;;;25.75;43.62
71772;BME280;59606;52.138;5.424;2022-08-11T09:17:11;102373.75;;;25.85;42.17
71772;BME280;59606;52.138;5.424;2022-08-11T09:19:38;102372.31;;;25.91;41.39
71772;BME280;59606;52.138;5.424;2022-08-11T09:22:07;102367.94;;;25.99;42.60
71772;BME280;59606;52.138;5.424;2022-08-11T09:24:54;102365.50;;;26.06;43.17
71772;BME280;59606;52.138;5.424;2022-08-11T09:27:40;102366.06;;;26.09;41.88
71772;BME280;59606;52.138;5.424;2022-08-11T09:30:18;102366.28;;;26.16;40.50
71772;BME280;59606;52.138;5.424;2022-08-11T09:32:45;102355.22;;;26.29;39.42
71772;BME280;59606;52.138;5.424;2022-08-11T09:35:12;102356.03;;;26.39;39.95
71772;BME280;59606;52.138;5.424;2022-08-11T09:37:39;102347.66;;;26.52;38.73
71772;BME280;59606;52.138;5.424;2022-08-11T09:40:25;102347.75;;;26.60;37.29
71772;BME280;59606;52.138;5.424;2022-08-11T09:43:00;102346.50;;;26.72;37.80
71772;BME280;59606;52.138;5.424;2022-08-11T09:45:48;102341.84;;;26.74;38.02
71772;BME280;59606;52.138;5.424;2022-08-11T09:48:19;102342.53;;;26.76;38.26
71772;BME280;59606;52.138;5.424;2022-08-11T09:50:52;102335.28;;;26.87;38.16
71772;BME280;59606;52.138;5.424;2022-08-11T09:53:21;102337.53;;;26.99;36.99
71772;BME280;59606;52.138;5.424;2022-08-11T09:56:04;102344.31;;;27.12;37.54
71772;BME280;59606;52.138;5.424;2022-08-11T09:58:51;102332.72;;;27.21;37.13
71772;BME280;59606;52.138;5.424;2022-08-11T10:01:20;102333.38;;;27.23;36.59
71772;BME280;59606;52.138;5.424;2022-08-11T10:04:16;102332.97;;;27.36;37.88
71772;BME280;59606;52.138;5.424;2022-08-11T10:06:48;102333.53;;;27.47;37.44
71772;BME280;59606;52.138;5.424;2022-08-11T10:09:39;102340.06;;;27.53;37.37
71772;BME280;59606;52.138;5.424;2022-08-11T10:12:09;102328.59;;;27.61;33.90
71772;BME280;59606;52.138;5.424;2022-08-11T10:14:42;102323.25;;;27.69;34.22
71772;BME280;59606;52.138;5.424;2022-08-11T10:17:31;102324.19;;;27.78;32.96
71772;BME280;59606;52.138;5.424;2022-08-11T10:19:59;102317.50;;;27.90;33.78
71772;BME280;59606;52.138;5.424;2022-08-11T10:22:31;102327.94;;;28.01;32.46
71772;BME280;59606;52.138;5.424;2022-08-11T10:25:17;102322.78;;;28.08;32.21
71772;BME280;59606;52.138;5.424;2022-08-11T10:28:06;102323.09;;;28.13;32.93
71772;BME280;59606;52.138;5.424;2022-08-11T10:30:54;102317.59;;;28.23;32.70
71772;BME280;59606;52.138;5.424;2022-08-11T10:33:43;102314.78;;;28.32;33.10
71772;BME280;59606;52.138;5.424;2022-08-11T10:36:31;102302.59;;;28.46;30.74
71772;BME280;59606;52.138;5.424;2022-08-11T10:38:59;102310.16;;;28.59;30.87
71772;BME280;59606;52.138;5.424;2022-08-11T10:41:27;102307.63;;;28.65;29.97
71772;BME280;59606;52.138;5.424;2022-08-11T10:44:53;102305.81;;;28.74;31.39
71772;BME280;59606;52.138;5.424;2022-08-11T10:47:21;102293.72;;;28.78;29.06
71772;BME280;59606;52.138;5.424;2022-08-11T10:50:07;102298.75;;;28.81;30.30
71772;BME280;59606;52.138;5.424;2022-08-11T10:52:54;102294.03;;;28.92;30.00
71772;BME280;59606;52.138;5.424;2022-08-11T10:55:42;102289.16;;;28.95;29.63
71772;BME280;59606;52.138;5.424;2022-08-11T10:58:27;102290.19;;;29.02;30.33
71772;BME280;59606;52.138;5.424;2022-08-11T11:01:22;102288.50;;;29.09;30.31
71772;BME280;59606;52.138;5.424;2022-08-11T11:09:50;102285.59;;;29.27;30.25
71772;BME280;59606;52.138;5.424;2022-08-11T11:12:24;102277.69;;;29.34;28.88
71772;BME280;59606;52.138;5.424;2022-08-11T11:15:12;102279.53;;;29.42;28.58
71772;BME280;59606;52.138;5.424;2022-08-11T11:18:04;102272.47;;;29.41;28.88
71772;BME280;59606;52.138;5.424;2022-08-11T11:21:06;102272.25;;;29.50;29.15
71772;BME280;59606;52.138;5.424;2022-08-11T11:23:40;102270.06;;;29.54;28.37
71772;BME280;59606;52.138;5.424;2022-08-11T11:26:34;102261.66;;;29.57;28.86
71772;BME280;59606;52.138;5.424;2022-08-11T11:34:39;102263.78;;;29.78;28.27
71772;BME280;59606;52.138;5.424;2022-08-11T11:37:21;102267.22;;;29.95;27.65
71772;BME280;59606;52.138;5.424;2022-08-11T11:39:48;102260.47;;;29.99;28.43
71772;BME280;59606;52.138;5.424;2022-08-11T11:42:16;102267.47;;;30.08;27.37
71772;BME280;59606;52.138;5.424;2022-08-11T11:44:44;102261.53;;;30.13;27.41
71772;BME280;59606;52.138;5.424;2022-08-11T11:47:12;102259.50;;;30.15;27.69
71772;BME280;59606;52.138;5.424;2022-08-11T11:49:41;102260.88;;;30.19;26.59
71772;BME280;59606;52.138;5.424;2022-08-11T11:52:14;102246.81;;;30.32;27.71
71772;BME280;59606;52.138;5.424;2022-08-11T11:54:42;102253.97;;;30.39;27.48
71772;BME280;59606;52.138;5.424;2022-08-11T11:57:10;102260.84;;;30.42;27.41
71772;BME280;59606;52.138;5.424;2022-08-11T11:59:58;102259.81;;;30.43;27.27
71772;BME280;59606;52.138;5.424;2022-08-11T12:02:43;102246.66;;;30.48;26.62
71772;BME280;59606;52.138;5.424;2022-08-11T12:05:10;102235.53;;;30.51;27.21
71772;BME280;59606;52.138;5.424;2022-08-11T12:07:39;102233.97;;;30.57;26.04
71772;BME280;59606;52.138;5.424;2022-08-11T12:13:08;102229.84;;;30.69;26.56
71772;BME280;59606;52.138;5.424;2022-08-11T12:15:54;102231.91;;;30.82;25.80
71772;BME280;59606;52.138;5.424;2022-08-11T12:18:42;102226.25;;;30.91;26.04
71772;BME280;59606;52.138;5.424;2022-08-11T12:21:13;102223.75;;;31.05;25.67
71772;BME280;59606;52.138;5.424;2022-08-11T12:23:41;102221.88;;;31.05;24.72
71772;BME280;59606;52.138;5.424;2022-08-11T12:26:30;102223.19;;;30.94;24.98
71772;BME280;59606;52.138;5.424;2022-08-11T12:29:35;102216.25;;;31.00;25.76
71772;BME280;59606;52.138;5.424;2022-08-11T12:32:09;102211.88;;;31.14;25.83
71772;BME280;59606;52.138;5.424;2022-08-11T12:34:35;102206.28;;;31.15;24.37
71772;BME280;59606;52.138;5.424;2022-08-11T12:37:03;102209.47;;;31.19;25.11
71772;BME280;59606;52.138;5.424;2022-08-11T12:39:42;102205.63;;;31.28;24.53
71772;BME280;59606;52.138;5.424;2022-08-11T12:42:48;102202.66;;;31.38;24.60
71772;BME280;59606;52.138;5.424;2022-08-11T12:45:51;102197.03;;;31.33;23.38
71772;BME280;59606;52.138;5.424;2022-08-11T12:48:20;102186.41;;;31.31;23.73
71772;BME280;59606;52.138;5.424;2022-08-11T12:51:29;102193.38;;;31.40;23.93
71772;BME280;59606;52.138;5.424;2022-08-11T12:54:47;102193.75;;;31.37;23.87
71772;BME280;59606;52.138;5.424;2022-08-11T13:00:13;102173.84;;;31.53;24.51
71772;BME280;59606;52.138;5.424;2022-08-11T13:02:59;102183.72;;;31.46;24.34
71772;BME280;59606;52.138;5.424;2022-08-11T13:05:46;102179.41;;;31.52;23.68
71772;BME280;59606;52.138;5.424;2022-08-11T13:08:13;102176.63;;;31.60;23.75
71772;BME280;59606;52.138;5.424;2022-08-11T13:10:42;102176.25;;;31.63;24.70
71772;BME280;59606;52.138;5.424;2022-08-11T13:13:28;102172.56;;;31.70;24.79
71772;BME280;59606;52.138;5.424;2022-08-11T13:16:17;102175.59;;;31.82;24.35
71772;BME280;59606;52.138;5.424;2022-08-11T13:18:45;102162.75;;;31.84;24.97
71772;BME280;59606;52.138;5.424;2022-08-11T13:21:12;102165.94;;;31.88;23.23
71772;BME280;59606;52.138;5.424;2022-08-11T13:23:48;102158.13;;;31.93;22.91
71772;BME280;59606;52.138;5.424;2022-08-11T13:26:30;102162.75;;;31.84;22.88
71772;BME280;59606;52.138;5.424;2022-08-11T13:29:26;102163.69;;;31.91;24.11
71772;BME280;59606;52.138;5.424;2022-08-11T13:31:57;102160.41;;;31.96;23.23
71772;BME280;59606;52.138;5.424;2022-08-11T13:34:26;102149.03;;;32.01;22.83
71772;BME280;59606;52.138;5.424;2022-08-11T13:36:54;102148.88;;;32.09;23.21
71772;BME280;59606;52.138;5.424;2022-08-11T13:39:24;102145.81;;;32.12;23.48
71772;BME280;59606;52.138;5.424;2022-08-11T13:41:55;102141.50;;;32.17;23.86
71772;BME280;59606;52.138;5.424;2022-08-11T13:44:26;102139.25;;;32.21;22.28
71772;BME280;59606;52.138;5.424;2022-08-11T13:46:56;102140.03;;;32.15;23.92
71772;BME280;59606;52.138;5.424;2022-08-11T13:49:24;102138.81;;;32.17;22.63
71772;BME280;59606;52.138;5.424;2022-08-11T13:51:53;102135.78;;;32.27;23.15
71772;BME280;59606;52.138;5.424;2022-08-11T13:54:22;102139.09;;;32.29;23.26
71772;BME280;59606;52.138;5.424;2022-08-11T13:56:53;102133.31;;;32.32;22.83
71772;BME280;59606;52.138;5.424;2022-08-11T13:59:20;102128.16;;;32.37;22.72
71772;BME280;59606;52.138;5.424;2022-08-11T14:02:00;102133.63;;;32.44;23.42
71772;BME280;59606;52.138;5.424;2022-08-11T14:04:57;102127.25;;;32.52;22.59
71772;BME280;59606;52.138;5.424;2022-08-11T14:07:33;102129.91;;;32.45;22.61
71772;BME280;59606;52.138;5.424;2022-08-11T14:10:02;102129.06;;;32.45;22.42
71772;BME280;59606;52.138;5.424;2022-08-11T14:12:31;102129.75;;;32.53;22.69
71772;BME280;59606;52.138;5.424;2022-08-11T14:15:23;102119.53;;;32.49;21.99
71772;BME280;59606;52.138;5.424;2022-08-11T14:18:00;102124.78;;;32.57;21.81
71772;BME280;59606;52.138;5.424;2022-08-11T14:20:30;102121.50;;;32.61;22.27
71772;BME280;59606;52.138;5.424;2022-08-11T14:23:16;102117.75;;;32.62;22.24
71772;BME280;59606;52.138;5.424;2022-08-11T14:25:44;102118.81;;;32.68;22.26
71772;BME280;59606;52.138;5.424;2022-08-11T14:28:32;102115.38;;;32.81;22.18
71772;BME280;59606;52.138;5.424;2022-08-11T14:31:11;102112.22;;;32.77;22.62
71772;BME280;59606;52.138;5.424;2022-08-11T14:33:39;102109.72;;;32.76;21.87
71772;BME280;59606;52.138;5.424;2022-08-11T14:36:28;102108.66;;;32.70;22.32
71772;BME280;59606;52.138;5.424;2022-08-11T14:38:56;102105.78;;;32.78;21.74
71772;BME280;59606;52.138;5.424;2022-08-11T14:41:24;102097.06;;;32.83;21.86
71772;BME280;59606;52.138;5.424;2022-08-11T14:44:33;102095.84;;;32.85;22.50
71772;BME280;59606;52.138;5.424;2022-08-11T14:47:21;102098.16;;;32.89;22.35
71772;BME280;59606;52.138;5.424;2022-08-11T14:49:53;102095.63;;;32.80;21.61
71772;BME280;59606;52.138;5.424;2022-08-11T14:52:48;102087.69;;;32.72;22.03
71772;BME280;59606;52.138;5.424;2022-08-11T14:55:17;102093.69;;;32.68;22.11
71772;BME280;59606;52.138;5.424;2022-08-11T14:58:04;102090.75;;;32.62;21.93
71772;BME280;59606;52.138;5.424;2022-08-11T15:00:32;102096.59;;;32.66;21.62
71772;BME280;59606;52.138;5.424;2022-08-11T15:03:00;102090.22;;;32.74;22.10
71772;BME280;59606;52.138;5.424;2022-08-11T15:05:49;102084.81;;;32.74;21.60
71772;BME280;59606;52.138;5.424;2022-08-11T15:08:26;102083.56;;;32.76;21.16
71772;BME280;59606;52.138;5.424;2022-08-11T15:11:14;102078.63;;;32.80;22.41
71772;BME280;59606;52.138;5.424;2022-08-11T15:14:02;102078.41;;;32.81;21.34
71772;BME280;59606;52.138;5.424;2022-08-11T15:16:29;102068.25;;;32.83;21.66
71772;BME280;59606;52.138;5.424;2022-08-11T15:19:16;102073.63;;;32.83;22.20
71772;BME280;59606;52.138;5.424;2022-08-11T15:21:48;102073.75;;;33.03;21.90
71772;BME280;59606;52.138;5.424;2022-08-11T15:24:34;102072.06;;;33.02;21.23
71772;BME280;59606;52.138;5.424;2022-08-11T15:27:16;102068.34;;;33.03;21.47
71772;BME280;59606;52.138;5.424;2022-08-11T15:30:04;102067.06;;;33.06;21.45
71772;BME280;59606;52.138;5.424;2022-08-11T15:33:04;102066.25;;;33.05;20.71
71772;BME280;59606;52.138;5.424;2022-08-11T15:35:52;102061.28;;;33.16;20.96
71772;BME280;59606;52.138;5.424;2022-08-11T15:38:46;102054.84;;;33.10;21.27
71772;BME280;59606;52.138;5.424;2022-08-11T15:41:22;102048.41;;;33.04;20.89
71772;BME280;59606;52.138;5.424;2022-08-11T15:44:26;102042.34;;;33.02;21.15
71772;BME280;59606;52.138;5.424;2022-08-11T15:47:34;102040.69;;;33.01;21.31
71772;BME280;59606;52.138;5.424;2022-08-11T15:50:01;102041.75;;;33.00;21.84
71772;BME280;59606;52.138;5.424;2022-08-11T15:52:46;102029.91;;;33.01;23.44
71772;BME280;59606;52.138;5.424;2022-08-11T15:55:15;102037.59;;;33.11;21.72
71772;BME280;59606;52.138;5.424;2022-08-11T15:57:43;102034.06;;;33.04;21.57
71772;BME280;59606;52.138;5.424;2022-08-11T16:00:31;102029.69;;;33.09;21.22
71772;BME280;59606;52.138;5.424;2022-08-11T16:03:32;102019.94;;;33.15;22.07
71772;BME280;59606;52.138;5.424;2022-08-11T16:06:34;102023.69;;;33.07;21.65
71772;BME280;59606;52.138;5.424;2022-08-11T16:09:05;102022.84;;;33.00;21.30
71772;BME280;59606;52.138;5.424;2022-08-11T16:11:45;102029.91;;;33.01;21.91
71772;BME280;59606;52.138;5.424;2022-08-11T16:14:14;102028.06;;;33.15;21.97
71772;BME280;59606;52.138;5.424;2022-08-11T16:17:02;102016.03;;;33.24;21.82
71772;BME280;59606;52.138;5.424;2022-08-11T16:19:32;102020.38;;;33.32;21.46
71772;BME280;59606;52.138;5.424;2022-08-11T16:22:00;102022.69;;;33.35;21.42
71772;BME280;59606;52.138;5.424;2022-08-11T16:24:29;102018.72;;;33.38;21.33
71772;BME280;59606;52.138;5.424;2022-08-11T16:27:16;102015.22;;;33.37;21.25